Time;durP1;ratioP1;P1;durP2;ratioP2;P2;SDS_P1;SDS_P2;PMS_P1;PMS_P2;Temp;Humidity;BMP_temperature;BMP_pressure;BME280_temperature;BME280_humidity;BME280_pressure;Samples;Min_cycle;Max_cycle;Signal;HPM_P1;HPM_P2
2021/06/23 00:01:14;;;;;;;3.03;2.23;;;26.80;55.80;;;;;;5025912;28;20657;-49
2021/06/23 00:03:40;;;;;;;2.80;2.60;;;26.60;56.30;;;;;;5018604;28;20196;-47
2021/06/23 00:06:06;;;;;;;3.10;2.87;;;26.60;56.40;;;;;;5020506;28;22163;-47
2021/06/23 00:08:32;;;;;;;2.77;2.57;;;26.40;56.70;;;;;;5025305;28;20519;-49
2021/06/23 00:10:59;;;;;;;4.30;2.60;;;26.30;57.30;;;;;;5024720;28;20710;-46
2021/06/23 00:13:27;;;;;;;2.67;2.47;;;26.10;57.70;;;;;;5021864;28;20529;-46
2021/06/23 00:15:53;;;;;;;3.17;2.90;;;25.90;58.30;;;;;;5025452;28;20595;-46
2021/06/23 00:18:19;;;;;;;3.53;3.23;;;26.00;58.10;;;;;;5027692;28;20538;-49
2021/06/23 00:20:45;;;;;;;2.90;2.13;;;26.20;57.60;;;;;;5029045;28;20197;-50
2021/06/23 00:23:10;;;;;;;3.57;2.50;;;26.30;57.40;;;;;;5022320;28;20563;-46
2021/06/23 00:25:36;;;;;;;2.80;2.60;;;26.40;56.90;;;;;;5027342;28;20671;-45
2021/06/23 00:28:02;;;;;;;2.93;2.63;;;26.50;56.70;;;;;;5020055;28;20201;-48
2021/06/23 00:30:27;;;;;;;3.07;2.60;;;26.60;56.40;;;;;;5023672;28;20189;-46
2021/06/23 00:32:54;;;;;;;6.53;3.30;;;26.70;56.20;;;;;;5023999;28;20208;-48
2021/06/23 00:35:20;;;;;;;2.60;2.40;;;26.80;56.20;;;;;;5028695;28;20189;-45
2021/06/23 00:37:45;;;;;;;3.33;2.60;;;26.80;56.10;;;;;;5027503;28;20440;-50
2021/06/23 00:40:12;;;;;;;2.40;2.30;;;26.80;56.10;;;;;;5029092;28;20193;-50
2021/06/23 00:42:39;;;;;;;2.90;2.67;;;26.80;56.30;;;;;;5027002;28;20197;-49
2021/06/23 00:45:07;;;;;;;3.30;3.07;;;26.70;56.30;;;;;;5028079;28;20440;-49
2021/06/23 00:47:33;;;;;;;2.50;2.40;;;26.70;56.40;;;;;;5023792;28;20951;-50
2021/06/23 00:50:07;;;;;;;7.77;2.90;;;26.60;56.50;;;;;;5029378;28;20444;-52
2021/06/23 00:52:34;;;;;;;9.70;3.20;;;26.50;56.90;;;;;;5021197;28;20803;-51
2021/06/23 00:55:00;;;;;;;3.60;3.40;;;26.40;57.30;;;;;;5018716;28;20815;-51
2021/06/23 00:57:27;;;;;;;3.70;3.40;;;26.20;57.90;;;;;;5027735;28;20491;-51
2021/06/23 00:59:55;;;;;;;5.03;2.63;;;25.90;58.60;;;;;;5021935;28;20467;-51
2021/06/23 01:02:21;;;;;;;7.33;2.20;;;25.80;59.20;;;;;;5024802;28;20447;-52
2021/06/23 01:04:48;;;;;;;2.93;2.67;;;25.60;59.50;;;;;;5020394;28;20451;-53
2021/06/23 01:07:16;;;;;;;4.03;2.33;;;25.60;59.60;;;;;;5026548;28;21930;-50
2021/06/23 01:09:42;;;;;;;6.80;2.50;;;25.80;59.40;;;;;;5023631;28;20444;-53
2021/06/23 01:12:07;;;;;;;2.50;2.20;;;26.00;58.90;;;;;;5025795;28;20499;-52
2021/06/23 01:14:35;;;;;;;4.50;2.20;;;26.00;58.70;;;;;;5026161;28;20197;-51
2021/06/23 01:17:02;;;;;;;4.80;2.40;;;26.10;58.60;;;;;;5026196;28;20730;-52
2021/06/23 01:19:36;;;;;;;2.90;2.30;;;26.20;58.20;;;;;;5031223;28;20443;-52
2021/06/23 01:22:02;;;;;;;2.57;2.37;;;26.20;58.10;;;;;;5030161;28;20451;-52
2021/06/23 01:24:28;;;;;;;10.57;2.63;;;26.30;57.80;;;;;;5029539;28;20439;-54
2021/06/23 01:26:53;;;;;;;3.03;2.07;;;26.30;57.70;;;;;;5030203;28;20529;-50
2021/06/23 01:29:19;;;;;;;3.30;2.17;;;26.20;57.90;;;;;;5028566;28;20293;-53
2021/06/23 01:31:44;;;;;;;1.83;1.73;;;26.30;58.10;;;;;;5029738;28;20193;-50
2021/06/23 01:34:11;;;;;;;2.90;2.20;;;26.30;57.90;;;;;;5030422;28;20198;-52
2021/06/23 01:36:37;;;;;;;2.60;2.40;;;26.40;57.70;;;;;;5028346;28;20274;-52
2021/06/23 01:39:03;;;;;;;3.50;2.40;;;26.50;57.40;;;;;;5033104;28;20448;-49
2021/06/23 01:41:28;;;;;;;2.33;2.20;;;26.50;57.50;;;;;;5030062;28;20200;-50
2021/06/23 01:43:54;;;;;;;2.40;2.10;;;26.30;57.80;;;;;;5030027;28;20553;-52
2021/06/23 01:46:20;;;;;;;3.70;2.57;;;26.30;57.90;;;;;;5026609;28;20194;-51
2021/06/23 01:48:45;;;;;;;3.50;2.33;;;26.40;57.80;;;;;;5026490;28;20197;-49
2021/06/23 01:51:11;;;;;;;5.90;2.53;;;26.30;57.70;;;;;;5026033;28;20977;-49
2021/06/23 01:53:37;;;;;;;2.87;2.43;;;26.30;57.80;;;;;;5021466;28;20189;-49
2021/06/23 01:56:06;;;;;;;2.63;2.43;;;26.30;57.80;;;;;;5027862;28;20260;-53
2021/06/23 01:58:42;;;;;;;2.60;2.30;;;26.40;57.50;;;;;;5029134;28;20452;-51
2021/06/23 02:01:16;;;;;;;2.57;2.40;;;26.50;57.30;;;;;;5028850;28;20512;-48
2021/06/23 02:04:04;;;;;;;4.80;2.40;;;26.40;57.20;;;;;;5031052;28;20444;-51
2021/06/23 02:06:49;;;;;;;4.90;2.80;;;26.40;57.40;;;;;;5027036;28;20443;-49
2021/06/23 02:09:39;;;;;;;5.40;2.93;;;26.40;57.40;;;;;;5031224;28;20532;-48
2021/06/23 02:12:25;;;;;;;2.47;2.27;;;26.40;57.50;;;;;;5029466;28;20566;-49
2021/06/23 02:14:57;;;;;;;2.33;2.23;;;26.30;57.60;;;;;;5024528;28;20776;-48
2021/06/23 02:17:25;;;;;;;3.20;2.23;;;26.30;57.60;;;;;;5030944;28;20483;-49
2021/06/23 02:19:52;;;;;;;3.70;2.10;;;26.20;57.60;;;;;;5030273;28;20448;-48
2021/06/23 02:22:30;;;;;;;3.13;2.37;;;26.30;57.60;;;;;;5028575;28;20822;-53
2021/06/23 02:25:04;;;;;;;2.37;2.17;;;26.30;57.50;;;;;;5022555;28;20549;-49
2021/06/23 02:27:30;;;;;;;2.37;2.17;;;26.40;57.30;;;;;;5028966;28;20443;-50
2021/06/23 02:29:56;;;;;;;1.90;1.80;;;26.40;57.30;;;;;;5030245;28;21242;-48
2021/06/23 02:32:26;;;;;;;2.80;2.60;;;26.40;57.30;;;;;;5027434;28;22031;-51
2021/06/23 02:34:53;;;;;;;4.30;2.37;;;26.40;57.30;;;;;;5024927;28;20452;-48
2021/06/23 02:37:20;;;;;;;2.40;2.07;;;26.30;58.00;;;;;;5027434;28;20846;-49
2021/06/23 02:39:46;;;;;;;2.90;2.50;;;26.40;57.30;;;;;;5029673;28;20451;-48
2021/06/23 02:42:12;;;;;;;2.13;2.03;;;26.50;57.00;;;;;;5032188;28;20435;-48
2021/06/23 02:44:39;;;;;;;2.13;1.93;;;26.40;57.10;;;;;;5028420;28;20927;-51
2021/06/23 02:47:06;;;;;;;2.20;2.10;;;26.40;57.20;;;;;;5026575;28;20323;-48
2021/06/23 02:49:33;;;;;;;2.60;2.40;;;26.40;57.20;;;;;;5029183;28;20445;-48
2021/06/23 02:51:59;;;;;;;2.33;2.13;;;26.30;57.30;;;;;;5024678;28;20954;-52
2021/06/23 02:54:25;;;;;;;2.60;2.40;;;26.40;57.20;;;;;;5029784;28;20467;-49
2021/06/23 02:56:52;;;;;;;2.50;2.30;;;26.50;56.90;;;;;;5024670;28;20583;-49
2021/06/23 02:59:21;;;;;;;2.83;2.50;;;26.40;56.90;;;;;;5027265;28;20590;-49
2021/06/23 03:01:48;;;;;;;3.27;1.97;;;26.40;56.80;;;;;;5028049;28;20475;-50
2021/06/23 03:04:14;;;;;;;3.27;1.97;;;26.30;57.00;;;;;;5016857;28;20459;-53
2021/06/23 03:06:39;;;;;;;1.90;1.80;;;26.40;57.00;;;;;;5026684;28;20440;-53
2021/06/23 03:09:05;;;;;;;2.60;2.10;;;26.30;57.00;;;;;;5023191;28;20566;-51
2021/06/23 03:11:36;;;;;;;3.30;2.20;;;26.20;57.30;;;;;;5029922;28;20240;-51
2021/06/23 03:14:02;;;;;;;2.27;2.10;;;26.20;57.20;;;;;;5020770;28;20197;-52
2021/06/23 03:16:28;;;;;;;2.40;2.20;;;26.30;57.10;;;;;;5029741;28;20495;-53
2021/06/23 03:18:54;;;;;;;3.03;2.10;;;26.20;57.00;;;;;;5021987;28;20198;-50
2021/06/23 03:21:19;;;;;;;3.50;3.20;;;26.20;56.90;;;;;;5023573;28;20604;-52
2021/06/23 03:23:50;;;;;;;2.17;2.03;;;26.30;56.60;;;;;;5022044;28;20648;-53
2021/06/23 03:26:16;;;;;;;3.80;2.50;;;26.20;57.00;;;;;;5024143;28;20213;-52
2021/06/23 03:28:42;;;;;;;8.30;2.93;;;26.30;56.30;;;;;;5025455;28;20493;-51
2021/06/23 03:31:08;;;;;;;3.13;2.93;;;26.40;55.80;;;;;;5021260;28;20441;-51
2021/06/23 03:33:34;;;;;;;2.47;2.27;;;26.40;55.80;;;;;;5025703;28;20198;-52
2021/06/23 03:35:59;;;;;;;7.33;3.27;;;26.40;55.90;;;;;;5026286;28;20977;-52
2021/06/23 03:38:25;;;;;;;3.33;3.07;;;26.30;56.00;;;;;;5028362;28;20279;-48
2021/06/23 03:40:50;;;;;;;4.80;2.90;;;26.20;56.40;;;;;;5030284;28;20185;-49
2021/06/23 03:43:19;;;;;;;6.70;3.17;;;26.00;56.80;;;;;;5029674;28;20284;-51
2021/06/23 03:45:45;;;;;;;4.37;3.63;;;25.90;57.20;;;;;;5026647;28;20656;-51
2021/06/23 03:48:11;;;;;;;3.60;3.37;;;25.80;57.50;;;;;;5021513;28;20448;-53
2021/06/23 03:50:37;;;;;;;3.67;3.37;;;25.80;57.60;;;;;;5027848;28;20583;-47
2021/06/23 03:53:04;;;;;;;4.40;3.70;;;25.80;57.70;;;;;;5022327;28;20632;-49
2021/06/23 03:55:30;;;;;;;4.50;4.13;;;25.60;58.00;;;;;;5020597;28;20433;-50
2021/06/23 03:57:57;;;;;;;3.77;3.47;;;25.50;58.30;;;;;;5021841;28;20448;-48
2021/06/23 04:00:28;;;;;;;5.40;3.97;;;25.30;58.70;;;;;;5021759;28;20531;-50
2021/06/23 04:02:53;;;;;;;3.60;3.37;;;25.30;59.40;;;;;;5026761;28;20456;-50
2021/06/23 04:05:20;;;;;;;3.80;3.50;;;25.30;59.30;;;;;;5015882;28;20830;-49
2021/06/23 04:07:45;;;;;;;4.77;3.90;;;25.30;59.00;;;;;;5026573;28;20201;-50
2021/06/23 04:10:12;;;;;;;4.40;4.10;;;25.30;59.00;;;;;;5026461;28;20806;-51
2021/06/23 04:12:38;;;;;;;4.63;4.23;;;25.20;59.00;;;;;;5028515;28;20541;-50
2021/06/23 04:15:06;;;;;;;3.87;3.57;;;25.10;59.40;;;;;;5026832;28;20517;-51
2021/06/23 04:17:33;;;;;;;5.60;4.10;;;25.10;59.70;;;;;;5022827;28;20492;-48
2021/06/23 04:19:58;;;;;;;4.67;4.27;;;25.10;59.90;;;;;;5025028;28;20448;-51
2021/06/23 04:22:25;;;;;;;4.77;3.90;;;25.10;59.70;;;;;;5021242;28;20444;-52
2021/06/23 04:24:55;;;;;;;3.80;3.50;;;25.00;60.20;;;;;;5028087;28;20189;-52
2021/06/23 04:27:22;;;;;;;4.20;3.80;;;24.80;60.80;;;;;;5026900;28;20454;-51
2021/06/23 04:29:47;;;;;;;3.53;3.23;;;24.90;60.70;;;;;;5028079;28;20471;-51
2021/06/23 04:32:13;;;;;;;3.77;3.23;;;24.90;60.50;;;;;;5026070;28;20436;-52
2021/06/23 04:34:40;;;;;;;3.37;2.87;;;25.00;60.30;;;;;;5028655;28;20205;-50
2021/06/23 04:37:06;;;;;;;3.83;2.93;;;25.20;59.90;;;;;;5021383;28;20316;-52
2021/06/23 04:39:31;;;;;;;3.17;2.87;;;25.30;59.50;;;;;;5019602;28;20819;-50
2021/06/23 04:41:57;;;;;;;5.53;3.00;;;25.40;59.30;;;;;;5023602;28;20721;-51
2021/06/23 04:44:23;;;;;;;4.43;3.53;;;25.50;59.00;;;;;;5020776;28;20201;-47
2021/06/23 04:46:48;;;;;;;5.43;3.80;;;25.60;58.80;;;;;;5024209;28;20203;-48
2021/06/23 04:49:14;;;;;;;4.53;4.00;;;25.60;58.60;;;;;;5027780;28;20652;-52
2021/06/23 04:51:39;;;;;;;4.43;3.93;;;25.70;58.50;;;;;;5028657;28;20356;-48
2021/06/23 04:54:05;;;;;;;4.00;3.70;;;25.80;58.40;;;;;;5024032;28;20194;-47
2021/06/23 04:56:31;;;;;;;5.20;3.80;;;25.80;58.10;;;;;;5023790;28;20649;-48
2021/06/23 04:58:58;;;;;;;3.67;3.47;;;25.60;58.30;;;;;;5016983;28;20199;-51
2021/06/23 05:01:24;;;;;;;4.80;4.40;;;25.20;59.40;;;;;;5028391;28;20334;-49
2021/06/23 05:03:50;;;;;;;4.37;4.07;;;25.00;60.30;;;;;;5026024;28;20935;-48
2021/06/23 05:06:16;;;;;;;7.07;4.73;;;24.80;61.00;;;;;;5024899;28;20578;-48
2021/06/23 05:08:41;;;;;;;7.83;7.03;;;25.00;60.90;;;;;;5022038;28;20561;-50
2021/06/23 05:11:07;;;;;;;6.00;5.30;;;25.10;60.30;;;;;;5013423;28;20280;-49
2021/06/23 05:13:33;;;;;;;5.83;4.70;;;25.00;60.80;;;;;;5026818;28;20305;-48
2021/06/23 05:15:59;;;;;;;5.23;4.83;;;25.00;61.00;;;;;;5021439;28;20280;-49
2021/06/23 05:18:27;;;;;;;5.40;3.63;;;25.20;60.40;;;;;;5026910;28;20193;-54
2021/06/23 05:20:55;;;;;;;5.43;4.93;;;25.40;59.90;;;;;;5023520;28;21150;-52
2021/06/23 05:23:22;;;;;;;4.70;4.30;;;25.40;59.70;;;;;;5022458;28;20574;-51
2021/06/23 05:25:47;;;;;;;4.53;4.23;;;25.50;59.70;;;;;;5023687;28;20535;-52
2021/06/23 05:28:13;;;;;;;6.10;5.60;;;25.50;60.30;;;;;;5024273;28;20519;-52
2021/06/23 05:30:39;;;;;;;4.90;4.50;;;25.50;59.50;;;;;;5027428;28;20554;-51
2021/06/23 05:33:04;;;;;;;4.87;4.37;;;25.50;59.60;;;;;;5020549;28;20444;-52
2021/06/23 05:35:30;;;;;;;4.90;3.90;;;25.10;60.40;;;;;;5022629;28;20193;-51
2021/06/23 05:37:56;;;;;;;5.00;3.90;;;25.10;60.80;;;;;;5027295;28;20200;-50
2021/06/23 05:40:21;;;;;;;3.83;3.50;;;25.00;61.10;;;;;;5024946;28;20197;-50
2021/06/23 05:42:47;;;;;;;4.20;3.90;;;25.00;60.90;;;;;;5029677;28;20201;-51
2021/06/23 05:45:13;;;;;;;4.13;3.80;;;25.00;61.10;;;;;;5029369;28;20666;-51
2021/06/23 05:47:38;;;;;;;3.80;3.27;;;25.00;61.10;;;;;;5027796;28;20197;-52
2021/06/23 05:50:05;;;;;;;3.70;3.40;;;25.00;61.10;;;;;;5027301;28;20928;-52
2021/06/23 05:52:31;;;;;;;4.47;3.87;;;24.80;62.30;;;;;;5024972;28;20185;-50
2021/06/23 05:54:57;;;;;;;3.80;3.50;;;24.70;63.10;;;;;;5024185;28;20428;-51
2021/06/23 05:57:22;;;;;;;3.63;3.33;;;24.50;62.80;;;;;;5028502;28;20303;-48
2021/06/23 05:59:48;;;;;;;3.30;3.00;;;24.30;63.60;;;;;;5023616;28;20197;-51
2021/06/23 06:02:13;;;;;;;5.17;3.53;;;24.40;63.60;;;;;;5028884;28;20658;-51
2021/06/23 06:04:39;;;;;;;4.37;3.80;;;24.20;64.10;;;;;;5033003;28;20201;-51
2021/06/23 06:07:04;;;;;;;3.20;3.00;;;24.20;64.40;;;;;;5030058;28;20204;-52
2021/06/23 06:09:30;;;;;;;3.47;3.17;;;24.30;63.80;;;;;;5032434;28;20649;-51
2021/06/23 06:11:56;;;;;;;3.00;2.80;;;24.70;63.30;;;;;;5032986;28;20264;-49
2021/06/23 06:14:21;;;;;;;2.70;2.50;;;24.80;60.90;;;;;;5033121;28;20198;-51
2021/06/23 06:16:47;;;;;;;2.90;2.40;;;24.80;62.10;;;;;;5032950;28;20221;-51
2021/06/23 06:19:12;;;;;;;3.80;2.77;;;25.00;61.90;;;;;;5027947;28;20201;-50
2021/06/23 06:21:38;;;;;;;2.40;2.20;;;25.30;60.70;;;;;;5030784;28;20189;-51
2021/06/23 06:24:04;;;;;;;2.63;2.00;;;25.50;59.60;;;;;;5028343;28;20448;-52
2021/06/23 06:26:30;;;;;;;2.90;2.50;;;25.70;58.80;;;;;;5030108;28;20189;-51
2021/06/23 06:28:56;;;;;;;2.20;2.00;;;25.70;57.60;;;;;;5030894;28;20443;-52
2021/06/23 06:31:22;;;;;;;2.10;1.90;;;25.50;57.10;;;;;;5022059;28;20638;-49
2021/06/23 06:33:49;;;;;;;2.20;2.00;;;25.30;56.70;;;;;;5027945;28;20446;-50
2021/06/23 06:36:14;;;;;;;2.47;1.73;;;25.40;57.80;;;;;;5029631;28;20229;-52
2021/06/23 06:38:40;;;;;;;2.30;1.63;;;25.40;57.10;;;;;;5031583;28;20793;-52
2021/06/23 06:41:06;;;;;;;2.07;1.87;;;25.40;57.50;;;;;;5030194;28;20675;-51
2021/06/23 06:43:31;;;;;;;1.80;1.70;;;25.50;56.90;;;;;;5031345;28;20566;-50
2021/06/23 06:45:57;;;;;;;2.30;1.60;;;25.50;57.20;;;;;;5030913;28;20201;-51
2021/06/23 06:48:24;;;;;;;2.57;2.00;;;25.60;57.10;;;;;;5030825;28;20193;-50
2021/06/23 06:50:50;;;;;;;1.97;1.73;;;25.80;56.70;;;;;;5028875;28;20193;-50
2021/06/23 06:53:17;;;;;;;2.33;2.13;;;25.80;57.00;;;;;;5031033;28;20443;-49
2021/06/23 06:55:43;;;;;;;2.17;1.43;;;25.70;56.70;;;;;;5031390;28;20467;-51
2021/06/23 06:58:08;;;;;;;1.80;1.70;;;25.80;56.70;;;;;;5031592;28;20439;-48
2021/06/23 07:00:34;;;;;;;2.37;1.97;;;25.90;57.00;;;;;;5019301;28;20924;-49
2021/06/23 07:03:00;;;;;;;1.70;1.60;;;25.60;57.40;;;;;;5024913;28;20225;-49
2021/06/23 07:05:25;;;;;;;1.50;1.40;;;25.80;57.30;;;;;;5031427;28;20223;-53
2021/06/23 07:07:51;;;;;;;2.80;1.70;;;26.00;56.60;;;;;;5023478;28;20193;-52
2021/06/23 07:10:17;;;;;;;1.77;1.67;;;25.70;56.90;;;;;;5031879;28;20205;-48
2021/06/23 07:12:43;;;;;;;2.33;1.80;;;25.50;57.10;;;;;;5031992;28;20491;-48
2021/06/23 07:15:09;;;;;;;2.60;1.40;;;25.90;57.40;;;;;;5014988;28;20193;-53
2021/06/23 07:17:35;;;;;;;1.70;1.60;;;26.20;55.20;;;;;;5020334;28;20218;-50
2021/06/23 07:20:02;;;;;;;1.70;1.33;;;26.30;56.10;;;;;;5029112;28;20490;-49
2021/06/23 07:22:28;;;;;;;2.00;1.37;;;26.50;54.20;;;;;;5019469;28;20209;-53
2021/06/23 07:24:53;;;;;;;4.67;1.40;;;26.60;53.90;;;;;;5018423;28;20793;-52
2021/06/23 07:27:21;;;;;;;2.80;1.43;;;26.80;53.40;;;;;;5032519;28;20197;-48
2021/06/23 07:29:47;;;;;;;1.50;1.40;;;27.00;54.00;;;;;;5029197;28;20680;-50
2021/06/23 07:32:26;;;;;;;1.57;1.47;;;27.00;51.70;;;;;;5019605;28;20425;-49
2021/06/23 07:37:17;;;;;;;1.97;1.40;;;27.50;52.30;;;;;;5032408;28;20479;-52
2021/06/23 07:39:43;;;;;;;1.53;1.43;;;27.60;52.00;;;;;;5031557;28;20288;-52
2021/06/23 07:42:10;;;;;;;1.37;1.37;;;27.80;52.40;;;;;;5017631;28;20558;-49
2021/06/23 07:44:41;;;;;;;1.73;1.60;;;27.90;50.80;;;;;;5024488;28;20280;-49
2021/06/23 07:47:12;;;;;;;1.57;1.47;;;27.80;51.00;;;;;;5031925;28;20519;-49
2021/06/23 07:49:41;;;;;;;1.50;1.40;;;28.00;51.20;;;;;;5031324;28;20530;-52
2021/06/23 08:10:36;;;;;;;1.57;1.37;;;28.60;49.50;;;;;;5022796;28;20456;-49
2021/06/23 08:13:02;;;;;;;1.57;1.47;;;28.40;50.00;;;;;;5028601;28;20474;-49
2021/06/23 08:15:29;;;;;;;2.63;1.33;;;28.70;49.90;;;;;;5022633;28;20514;-48
2021/06/23 08:17:56;;;;;;;2.30;1.50;;;28.80;48.90;;;;;;5029754;28;20201;-51
2021/06/23 08:20:21;;;;;;;5.33;2.77;;;28.90;48.70;;;;;;5029569;28;20452;-50
2021/06/23 08:23:16;;;;;;;2.03;1.63;;;28.50;48.00;;;;;;5027412;28;20792;-52
2021/06/23 08:25:42;;;;;;;2.43;1.40;;;28.60;49.60;;;;;;5021776;28;20189;-48
2021/06/23 08:28:08;;;;;;;1.50;1.40;;;28.70;49.20;;;;;;5020219;28;20452;-50
2021/06/23 08:30:34;;;;;;;2.23;1.40;;;29.00;48.40;;;;;;5017004;28;20641;-48
2021/06/23 08:33:01;;;;;;;1.63;1.53;;;29.20;47.40;;;;;;5026330;28;20197;-48
2021/06/23 08:35:27;;;;;;;1.53;1.43;;;29.50;48.20;;;;;;5028186;28;20767;-51
2021/06/23 08:37:54;;;;;;;1.70;1.60;;;29.60;46.80;;;;;;5024205;28;22075;-48
2021/06/23 08:40:20;;;;;;;2.17;1.50;;;29.70;46.30;;;;;;5028728;28;20440;-50
2021/06/23 08:42:46;;;;;;;1.97;1.73;;;29.80;47.20;;;;;;5027236;28;20532;-48
2021/06/23 08:45:12;;;;;;;1.57;1.40;;;29.80;45.60;;;;;;5016350;28;20636;-49
2021/06/23 08:47:43;;;;;;;1.40;1.30;;;29.90;47.30;;;;;;5022539;28;20653;-50
2021/06/23 08:50:11;;;;;;;2.07;1.43;;;30.10;46.80;;;;;;5025146;28;20439;-50
2021/06/23 08:52:37;;;;;;;1.70;1.60;;;30.40;46.50;;;;;;5025665;28;20515;-50
2021/06/23 08:55:05;;;;;;;3.03;1.60;;;30.60;46.40;;;;;;5027874;28;20512;-49
2021/06/23 08:57:33;;;;;;;1.60;1.50;;;30.80;44.10;;;;;;5030232;28;20488;-48
2021/06/23 08:59:59;;;;;;;1.50;1.40;;;30.90;45.30;;;;;;5028523;28;20490;-51
2021/06/23 09:02:26;;;;;;;1.30;1.30;;;31.20;44.70;;;;;;5027934;28;20471;-49
2021/06/23 09:05:06;;;;;;;1.67;1.57;;;31.30;43.80;;;;;;5029647;28;20475;-49
2021/06/23 09:07:36;;;;;;;3.07;1.70;;;31.60;44.50;;;;;;5029688;28;20495;-49
2021/06/23 09:10:04;;;;;;;1.30;1.20;;;31.60;42.80;;;;;;5026167;28;20453;-53
2021/06/23 09:12:30;;;;;;;3.53;1.30;;;31.20;43.80;;;;;;5026366;28;20842;-53
2021/06/23 09:14:58;;;;;;;1.20;1.20;;;31.10;42.70;;;;;;5023439;28;20433;-53
2021/06/23 09:17:23;;;;;;;1.30;1.20;;;31.40;43.00;;;;;;5018214;28;20308;-52
2021/06/23 09:19:51;;;;;;;1.20;1.20;;;31.50;42.80;;;;;;5026600;28;20542;-52
2021/06/23 09:22:39;;;;;;;1.50;1.20;;;31.20;41.60;;;;;;5020782;28;20611;-53
2021/06/23 09:25:26;;;;;;;1.43;1.33;;;31.50;42.70;;;;;;5021953;28;20459;-52
2021/06/23 09:27:57;;;;;;;1.70;1.60;;;31.80;41.50;;;;;;5024767;28;20441;-53
2021/06/23 09:30:36;;;;;;;1.90;1.47;;;31.90;40.80;;;;;;5030216;28;20976;-52
2021/06/23 09:33:09;;;;;;;3.67;1.00;;;31.80;41.00;;;;;;5028842;28;20439;-53
2021/06/23 09:35:36;;;;;;;1.50;1.40;;;31.70;42.50;;;;;;5027173;28;20844;-52
2021/06/23 09:38:02;;;;;;;1.10;1.00;;;31.90;40.60;;;;;;5034461;28;20442;-53
2021/06/23 09:40:31;;;;;;;1.50;1.40;;;32.00;40.60;;;;;;5033428;28;20521;-51
2021/06/23 09:43:02;;;;;;;4.70;1.20;;;32.10;40.30;;;;;;5030407;28;20556;-51
2021/06/23 09:45:31;;;;;;;1.60;1.50;;;32.30;40.80;;;;;;5032910;28;20440;-52
2021/06/23 09:47:59;;;;;;;1.90;1.10;;;32.50;39.30;;;;;;5032604;28;20436;-53
2021/06/23 09:50:27;;;;;;;1.53;1.43;;;32.40;39.00;;;;;;5032420;28;20424;-50
2021/06/23 09:52:57;;;;;;;1.30;1.20;;;32.30;39.80;;;;;;5033769;28;21022;-52
2021/06/23 09:55:41;;;;;;;2.50;1.67;;;31.90;39.10;;;;;;5027066;28;20440;-52
2021/06/23 09:58:19;;;;;;;5.03;2.60;;;32.00;39.90;;;;;;5030545;28;20451;-52
2021/06/23 10:01:00;;;;;;;10.33;3.73;;;32.30;38.80;;;;;;5032417;28;21025;-52
2021/06/23 10:03:27;;;;;;;10.13;3.60;;;31.90;39.20;;;;;;5033941;28;20432;-53
2021/06/23 10:05:54;;;;;;;8.33;3.97;;;32.20;41.10;;;;;;5032228;28;20439;-49
2021/06/23 10:08:29;;;;;;;6.37;2.47;;;32.50;40.90;;;;;;5028867;28;20525;-52
2021/06/23 10:10:55;;;;;;;7.10;2.97;;;32.20;37.50;;;;;;5031914;28;20434;-49
2021/06/23 10:13:21;;;;;;;5.53;2.30;;;31.70;39.50;;;;;;5030908;28;20495;-49
2021/06/23 10:15:48;;;;;;;4.10;1.77;;;31.40;39.10;;;;;;5022355;28;20220;-53
2021/06/23 10:18:21;;;;;;;4.90;2.50;;;31.70;40.40;;;;;;5032721;28;20338;-49
2021/06/23 10:20:48;;;;;;;9.73;1.80;;;32.20;40.30;;;;;;5032519;28;20460;-49
2021/06/23 10:23:15;;;;;;;1.30;1.00;;;32.20;37.60;;;;;;5020583;28;20439;-53
2021/06/23 10:25:43;;;;;;;2.60;2.03;;;32.40;36.00;;;;;;5026716;28;20440;-50
2021/06/23 10:28:10;;;;;;;2.13;1.60;;;32.80;35.80;;;;;;5033419;28;20482;-52
2021/06/23 10:30:36;;;;;;;2.17;0.87;;;33.20;36.30;;;;;;5021992;28;20448;-50
2021/06/23 10:33:02;;;;;;;1.00;1.00;;;33.50;35.20;;;;;;5026736;28;20428;-51
2021/06/23 10:35:28;;;;;;;2.87;1.20;;;32.70;34.90;;;;;;5028786;28;20256;-49
2021/06/23 10:37:55;;;;;;;1.47;1.00;;;32.70;35.20;;;;;;5029554;28;20966;-49
2021/06/23 10:40:22;;;;;;;3.00;1.33;;;32.90;35.70;;;;;;5030720;28;20208;-49
2021/06/23 10:42:47;;;;;;;1.90;1.17;;;32.90;35.10;;;;;;5032429;28;20432;-50
2021/06/23 10:45:14;;;;;;;1.10;0.93;;;32.80;35.40;;;;;;5028676;28;20424;-49
2021/06/23 10:47:43;;;;;;;1.83;1.17;;;33.10;35.10;;;;;;5018251;28;20192;-49
2021/06/23 10:50:30;;;;;;;1.10;1.10;;;33.50;35.00;;;;;;5023534;28;20424;-49
2021/06/23 10:52:56;;;;;;;0.80;0.80;;;33.70;34.60;;;;;;5017971;28;20445;-48
2021/06/23 10:55:22;;;;;;;1.20;1.10;;;34.10;33.00;;;;;;5029653;28;20454;-49
2021/06/23 10:57:49;;;;;;;2.67;1.27;;;33.80;33.80;;;;;;5032541;28;20685;-50
2021/06/23 11:00:17;;;;;;;1.40;1.30;;;33.00;35.60;;;;;;5029797;28;20197;-48
2021/06/23 11:02:49;;;;;;;1.93;1.00;;;32.50;35.20;;;;;;5031685;28;20444;-49
2021/06/23 11:05:20;;;;;;;1.33;1.20;;;32.70;36.20;;;;;;5030295;28;20488;-49
2021/06/23 11:07:55;;;;;;;1.20;1.20;;;33.20;37.50;;;;;;5020644;28;20436;-50
2021/06/23 11:10:36;;;;;;;1.50;1.40;;;33.40;36.20;;;;;;5012767;28;20488;-49
2021/06/23 11:13:04;;;;;;;1.23;1.10;;;33.60;36.10;;;;;;5028645;28;20468;-52
2021/06/23 11:15:33;;;;;;;1.53;1.43;;;33.60;35.70;;;;;;5031955;28;20437;-48
2021/06/23 11:18:28;;;;;;;1.43;0.93;;;34.00;35.90;;;;;;5031202;28;20463;-48
2021/06/23 11:20:53;;;;;;;1.33;1.23;;;34.10;34.60;;;;;;5027536;28;20444;-49
2021/06/23 11:23:48;;;;;;;1.33;1.23;;;33.10;34.70;;;;;;5017496;28;20441;-49
2021/06/23 11:26:21;;;;;;;1.10;1.00;;;33.10;35.90;;;;;;5017844;28;20197;-49
2021/06/23 11:28:52;;;;;;;1.67;1.43;;;33.20;35.50;;;;;;5026912;28;20444;-48
2021/06/23 11:31:20;;;;;;;1.10;1.07;;;33.60;34.80;;;;;;5025451;28;20433;-49
2021/06/23 11:33:57;;;;;;;1.00;0.80;;;34.00;33.60;;;;;;5026901;28;20436;-49
2021/06/23 11:36:23;;;;;;;1.17;0.90;;;34.40;33.10;;;;;;5030208;28;20978;-48
2021/06/23 11:38:52;;;;;;;1.73;0.90;;;34.80;33.10;;;;;;5030586;28;20486;-49
2021/06/23 11:41:17;;;;;;;0.97;0.97;;;35.00;32.70;;;;;;5018331;28;20448;-49
2021/06/23 11:43:43;;;;;;;2.30;1.10;;;35.30;32.50;;;;;;5024925;28;20962;-50
2021/06/23 11:46:09;;;;;;;1.60;1.13;;;35.40;31.30;;;;;;5026346;28;20225;-52
2021/06/23 11:48:37;;;;;;;1.10;1.00;;;35.40;31.70;;;;;;5031306;28;20218;-50
2021/06/23 11:51:04;;;;;;;1.10;1.00;;;35.50;31.10;;;;;;5027984;28;20625;-51
2021/06/23 11:53:29;;;;;;;1.63;1.30;;;35.10;32.30;;;;;;5025160;28;20440;-53
2021/06/23 11:55:55;;;;;;;1.10;1.10;;;35.10;32.60;;;;;;5027169;28;20816;-51
2021/06/23 11:58:21;;;;;;;1.10;1.00;;;34.90;32.30;;;;;;5027678;28;20185;-50
2021/06/23 12:00:47;;;;;;;1.17;0.90;;;34.90;32.70;;;;;;5025334;28;20217;-52
2021/06/23 12:03:15;;;;;;;1.30;1.20;;;35.30;31.70;;;;;;5028400;28;20189;-53
2021/06/23 12:05:41;;;;;;;1.07;0.97;;;35.60;31.50;;;;;;5024324;28;20185;-52
2021/06/23 12:08:07;;;;;;;1.33;1.03;;;35.70;31.00;;;;;;5026964;28;20428;-54
2021/06/23 12:10:35;;;;;;;1.20;1.10;;;35.80;31.50;;;;;;5028900;28;20468;-53
2021/06/23 12:13:01;;;;;;;1.83;1.27;;;36.00;30.50;;;;;;5020602;28;20521;-54
2021/06/23 12:15:28;;;;;;;1.20;1.10;;;36.30;31.20;;;;;;5013780;28;20526;-54
2021/06/23 12:18:02;;;;;;;0.90;0.90;;;36.30;30.50;;;;;;5025612;28;20491;-53
2021/06/23 12:20:30;;;;;;;3.57;0.87;;;36.30;30.10;;;;;;5029313;28;20455;-52
2021/06/23 12:23:00;;;;;;;1.70;0.90;;;36.40;30.00;;;;;;5027035;28;20437;-52
2021/06/23 12:25:32;;;;;;;1.63;1.17;;;36.40;30.00;;;;;;5028011;28;20454;-52
2021/06/23 12:27:59;;;;;;;2.30;1.03;;;36.40;28.60;;;;;;5027792;28;20932;-53
2021/06/23 12:30:27;;;;;;;1.67;1.10;;;36.30;29.50;;;;;;5022154;28;20519;-52
2021/06/23 12:32:54;;;;;;;1.03;1.03;;;36.50;30.90;;;;;;5026358;28;20435;-51
2021/06/23 12:35:20;;;;;;;0.90;0.90;;;36.20;29.40;;;;;;5022278;28;20432;-53
2021/06/23 12:37:45;;;;;;;1.10;1.10;;;36.30;29.50;;;;;;5029761;28;20486;-53
2021/06/23 12:40:11;;;;;;;1.60;0.93;;;35.90;29.50;;;;;;5027822;28;20190;-51
2021/06/23 12:42:37;;;;;;;1.10;1.10;;;35.60;29.70;;;;;;5024519;28;20716;-52
2021/06/23 12:45:03;;;;;;;0.80;0.80;;;35.20;30.60;;;;;;5028081;28;20436;-52
2021/06/23 12:47:29;;;;;;;0.90;0.90;;;35.30;30.90;;;;;;5023074;28;20193;-50
2021/06/23 12:49:54;;;;;;;0.97;0.90;;;35.50;29.90;;;;;;5025152;28;20567;-52
2021/06/23 12:52:20;;;;;;;0.80;0.80;;;35.90;29.50;;;;;;5024567;28;20546;-52
2021/06/23 12:54:45;;;;;;;1.03;0.93;;;36.10;29.40;;;;;;5022442;28;20221;-52
2021/06/23 12:57:11;;;;;;;1.27;0.90;;;36.40;28.80;;;;;;5028920;28;20220;-52
2021/06/23 12:59:37;;;;;;;0.97;0.97;;;36.60;29.00;;;;;;5030110;28;20704;-51
2021/06/23 13:02:02;;;;;;;1.80;1.13;;;36.60;30.40;;;;;;5031089;28;20224;-51
2021/06/23 13:04:28;;;;;;;1.43;1.33;;;36.50;31.50;;;;;;5024017;28;20284;-52
2021/06/23 13:06:54;;;;;;;1.20;1.10;;;36.40;33.30;;;;;;5030063;28;20228;-52
2021/06/23 13:09:20;;;;;;;0.90;0.90;;;36.30;32.80;;;;;;5028635;28;20255;-53